Lynnview, OH

5:50 AM EST on February 20, 2017 (GMT -0500)
| | Change Station
Active Advisory: Dense Fog Advisory

Elev -9999 ft 0.00 °N, 0.00 °E | Updated 0 second ago

Fog
Fog
°F
Feels Like °F
N
Wind Variable Wind from North
Gusts mph

Today
High -- | Low -- °F
--% Chance of Precip.
Yesterday
High -- | Low -- °F
Precip. -- in
Pressure 30.22 in
Visibility 0.2 miles
Clouds
Dew Point Not available.
Humidity Not available.
Rainfall --
Snow Depth Not available.
7:23 AM 6:21 PM
Waning Crescent, 35% visible
METAR KHAO 200953Z AUTO 00000KT M1/4SM FG VV001 04/04 A3021 RMK AO2 SLP231 T00390039
Pressure 30.22 in
Visibility 0.2 miles
Clouds
Dew Point Not available.
Humidity Not available.
Rainfall --
Snow Depth Not available.
7:23 AM 6:21 PM
Waning Crescent, 35% visible
METAR KHAO 200953Z AUTO 00000KT M1/4SM FG VV001 04/04 A3021 RMK AO2 SLP231 T00390039

Get Your Daily Forecast Email!

Thanks for signing up!

Be on the lookout for a verification email in your inbox.

You'll start receiving the daily forecast at 8 AM.

×

10-Day Weather Forecast

Almanac

Astronomy

Feb. 20, 2017 Rise Set
Actual Time
Civil Twilight
Nautical Twilight
Astronomical Twilight
Moon
Length of Visible Light
Length of Day
Tomorrow will be .
, % of the Moon is Illuminated

Today's Extremes

State Highs State Lows

Community

WunderPhotos

Upload Photos

1,962,540 photos uploaded!

WunderBlog® & News

Nearby

Air Quality

  Air Quality AQ Index Pollutant
Not available.

Snow Depth

Station Depth Elevation

Earthquake Activity

City Distance Mag. Time & Date
Minimum magnitude displayed is 2.5.

Coastal Water Temperatures

Place Temperature

Stations

Nearby Weather Stations

Station Location Temp. Windchill Dew Point Humidity Wind Precip. Elev Updated Type
                   

Watches & Warnings

Dense Fog Advisory
Issued: 3:33 AM EST Feb. 20, 2017 – National Weather Service

... Dense fog advisory remains in effect until 10 am EST this
morning...

* timing... areas of dense fog can be expected overnight and into
the morning hours on Monday.

* Impacts... visibilities will be a quarter of a mile or less at
times. These poor visibilities will result in hazardous travel
conditions.

Precautionary/preparedness actions...

Motorists should use extra caution. Slow down, use low-beam
headlights, and leave plenty of distance ahead of you as objects
on and near roadways will be seen only at close range due to low
visibilities.